Time;durP1;ratioP1;P1;durP2;ratioP2;P2;SDS_P1;SDS_P2;PMS_P1;PMS_P2;Temp;Humidity;BMP_temperature;BMP_pressure;BME280_temperature;BME280_humidity;BME280_pressure;Samples;Min_cycle;Max_cycle;Signal;HPM_P1;HPM_P2
2021/06/21 00:00:23;;;;;;;7.60;3.25;;;20.40;76.30;;;20.84;60.64;96789.72;5049181;28;20378;-39
2021/06/21 00:02:52;;;;;;;8.80;3.17;;;20.40;76.30;;;20.81;60.61;96782.91;5048139;28;20240;-39
2021/06/21 00:05:20;;;;;;;6.03;2.50;;;20.30;76.50;;;20.80;60.34;96781.28;5049593;28;20697;-39
2021/06/21 00:07:49;;;;;;;9.18;3.22;;;20.30;76.50;;;20.80;60.47;96792.09;5047776;28;20055;-39
2021/06/21 00:10:18;;;;;;;6.15;1.92;;;20.30;76.50;;;20.78;60.55;96801.50;5050006;28;20064;-39
2021/06/21 00:12:47;;;;;;;4.63;1.88;;;20.30;76.50;;;20.75;60.61;96804.72;5049290;28;20060;-39
2021/06/21 00:15:23;;;;;;;5.00;1.80;;;20.20;76.40;;;20.76;60.64;96809.91;5047656;28;20049;-39
2021/06/21 00:17:53;;;;;;;6.28;2.53;;;20.30;76.40;;;20.76;60.71;96815.31;5047498;28;20049;-39
2021/06/21 00:20:23;;;;;;;4.75;1.70;;;20.30;76.40;;;20.75;60.45;96813.66;5050032;28;20250;-39
2021/06/21 00:22:54;;;;;;;4.72;2.17;;;20.30;76.30;;;20.76;60.62;96812.59;5048130;28;20063;-39
2021/06/21 00:25:24;;;;;;;8.68;2.30;;;20.30;76.20;;;20.77;60.41;96810.72;5029147;28;20067;-39
2021/06/21 00:27:52;;;;;;;6.72;2.50;;;20.30;76.30;;;20.75;60.57;96807.44;5047879;28;20088;-39
2021/06/21 00:30:21;;;;;;;10.95;2.58;;;20.30;76.30;;;20.74;60.77;96808.47;5046919;28;20057;-39
2021/06/21 00:32:50;;;;;;;9.05;2.42;;;20.30;76.70;;;20.75;61.13;96810.13;5049044;28;20061;-39
2021/06/21 00:35:21;;;;;;;10.40;3.22;;;20.30;77.00;;;20.77;61.04;96808.00;5030639;28;20064;-39
2021/06/21 00:37:50;;;;;;;4.60;2.50;;;20.40;76.80;;;20.80;61.03;96804.78;5047309;28;20353;-39
2021/06/21 00:40:18;;;;;;;7.65;2.45;;;20.40;76.50;;;20.79;60.76;96803.97;5048040;28;20067;-39
2021/06/21 00:42:47;;;;;;;5.95;2.88;;;20.50;76.10;;;20.82;60.89;96802.66;5046485;28;20338;-39
2021/06/21 00:45:20;;;;;;;4.85;2.10;;;20.50;76.20;;;20.83;60.90;96810.53;5029713;28;20053;-39
2021/06/21 00:47:51;;;;;;;11.13;2.28;;;20.50;76.40;;;20.85;60.85;96818.41;5046956;28;20338;-39
2021/06/21 00:50:22;;;;;;;11.32;3.03;;;20.50;76.40;;;20.84;61.18;96809.47;5047199;28;20351;-39
2021/06/21 00:52:55;;;;;;;6.03;2.28;;;20.50;76.50;;;20.87;61.24;96808.16;5046578;28;20049;-39
2021/06/21 00:55:24;;;;;;;;;;;20.50;76.60;;;20.85;60.78;96818.41;5047526;28;20061;-39
2021/06/21 00:57:53;;;;;;;9.05;2.20;;;20.50;77.60;;;20.87;60.92;96824.38;5049326;28;19931;-39
2021/06/21 01:00:25;;;;;;;5.55;2.03;;;20.40;76.70;;;20.83;61.05;96826.75;5049485;28;20071;-39
2021/06/21 01:02:54;;;;;;;6.38;2.88;;;20.40;76.30;;;20.81;60.75;96826.19;5047517;28;20049;-39
2021/06/21 01:05:25;;;;;;;11.45;2.55;;;20.40;76.20;;;20.79;60.78;96816.69;5048176;28;20045;-39
2021/06/21 01:07:54;;;;;;;4.75;1.88;;;20.30;77.30;;;20.77;60.81;96818.81;5029618;28;20083;-38
2021/06/21 01:10:29;;;;;;;7.57;2.65;;;20.30;76.40;;;20.74;60.89;96812.00;5047757;28;20257;-38
2021/06/21 01:13:10;;;;;;;5.35;2.00;;;20.20;76.40;;;20.73;60.59;96809.56;5030719;28;20063;-39
2021/06/21 01:15:52;;;;;;;7.10;2.17;;;20.20;76.40;;;20.70;60.80;96793.81;5028582;28;20064;-39
2021/06/21 01:18:28;;;;;;;10.00;2.45;;;20.30;76.20;;;20.72;60.87;96797.09;5030492;28;20063;-39
2021/06/21 01:21:46;;;;;;;4.95;1.85;;;20.30;76.10;;;20.72;60.83;96803.31;5029724;28;20060;-39
2021/06/21 01:24:59;;;;;;;3.55;1.80;;;20.30;76.30;;;20.67;60.83;96789.72;5047387;28;20057;-41
2021/06/21 01:28:04;;;;;;;7.97;2.55;;;20.30;76.70;;;20.65;60.54;96789.97;5046335;28;20049;-38
2021/06/21 01:31:08;;;;;;;5.80;2.08;;;20.30;76.90;;;20.59;61.14;96801.78;5030482;28;20049;-38
2021/06/21 01:33:38;;;;;;;8.00;2.10;;;20.20;76.60;;;20.56;61.02;96814.94;5038430;28;20057;-38
2021/06/21 01:36:11;;;;;;;6.88;2.25;;;20.10;76.40;;;20.54;61.00;96804.34;5027757;28;20063;-41
2021/06/21 01:38:50;;;;;;;7.38;1.92;;;20.10;76.60;;;20.53;61.11;96802.72;5045302;28;20065;-38
2021/06/21 01:41:25;;;;;;;6.38;2.00;;;20.10;76.50;;;20.49;61.01;96789.94;5029456;28;20403;-38
2021/06/21 01:43:57;;;;;;;7.65;2.13;;;20.10;76.70;;;20.48;61.10;96777.50;5029067;28;20052;-38
2021/06/21 01:46:35;;;;;;;10.30;2.33;;;20.00;76.50;;;20.41;61.28;96780.34;5029387;28;20067;-38
2021/06/21 01:49:25;;;;;;;6.40;1.95;;;20.00;76.80;;;20.35;61.06;96790.25;5045381;28;20378;-39
2021/06/21 01:51:58;;;;;;;6.38;2.50;;;19.90;76.80;;;20.31;61.22;96794.50;5029290;28;20458;-39
2021/06/21 01:54:30;;;;;;;5.18;1.80;;;19.90;76.80;;;20.29;61.46;96787.72;5029666;28;20079;-39
2021/06/21 01:56:59;;;;;;;4.05;2.30;;;19.90;76.80;;;20.25;61.47;96787.38;5045666;28;20061;-38
2021/06/21 01:59:29;;;;;;;5.55;2.60;;;19.90;76.60;;;20.17;61.73;96783.19;5010910;28;20067;-39
2021/06/21 02:02:00;;;;;;;10.50;2.33;;;19.90;76.70;;;20.19;61.77;96783.75;5046329;28;20048;-39
2021/06/21 02:04:35;;;;;;;8.82;2.42;;;19.90;77.00;;;20.21;61.72;96788.94;5029366;28;20243;-39
2021/06/21 02:07:04;;;;;;;7.50;2.97;;;19.90;77.00;;;20.23;61.56;96784.91;5029907;28;20044;-39
2021/06/21 02:09:32;;;;;;;5.90;1.88;;;19.90;76.90;;;20.21;61.69;96792.44;5046633;28;20347;-39
2021/06/21 02:12:01;;;;;;;8.27;1.98;;;19.90;76.90;;;20.22;61.47;96801.38;5028026;28;20067;-39
2021/06/21 02:14:31;;;;;;;5.25;1.70;;;19.90;76.80;;;20.24;61.20;96788.47;5028007;28;20075;-39
2021/06/21 02:17:01;;;;;;;6.13;2.10;;;19.90;76.80;;;20.23;61.28;96793.03;5028130;28;20053;-38
2021/06/21 02:19:32;;;;;;;12.85;2.30;;;19.80;76.60;;;20.21;61.25;96797.84;5045417;28;20565;-38
2021/06/21 02:22:01;;;;;;;6.10;2.80;;;19.80;76.70;;;20.21;61.53;96799.75;5045846;28;20064;-38
2021/06/21 02:24:29;;;;;;;6.07;1.75;;;19.90;76.80;;;20.19;61.47;96799.97;4992998;28;20057;-38
2021/06/21 02:26:59;;;;;;;7.13;3.00;;;19.80;76.70;;;20.18;61.56;96798.34;5046840;28;20355;-38
2021/06/21 02:29:28;;;;;;;8.50;2.80;;;19.80;76.70;;;20.15;61.38;96801.53;5011631;28;20053;-38
2021/06/21 02:31:57;;;;;;;7.05;2.63;;;19.80;76.70;;;20.16;61.33;96786.13;5027741;28;20061;-38
2021/06/21 02:34:25;;;;;;;5.82;2.30;;;19.80;76.70;;;20.16;61.42;96792.38;5045795;28;20056;-40
2021/06/21 02:36:53;;;;;;;6.25;2.00;;;19.70;76.80;;;20.16;61.51;96784.28;5045465;28;20083;-40
2021/06/21 02:39:21;;;;;;;7.07;1.88;;;19.80;76.90;;;20.15;61.35;96798.81;5031342;28;20045;-40
2021/06/21 02:41:49;;;;;;;3.22;1.58;;;19.70;77.00;;;20.13;61.53;96800.16;5049484;28;20343;-40
2021/06/21 02:44:17;;;;;;;4.75;2.22;;;19.70;77.00;;;20.12;61.51;96799.31;5049158;28;20045;-40
2021/06/21 02:46:45;;;;;;;4.03;2.03;;;19.70;76.70;;;20.14;61.46;96808.00;5050058;28;20358;-40
2021/06/21 02:49:13;;;;;;;5.55;2.08;;;19.80;76.50;;;20.14;61.35;96807.16;5048069;28;20052;-40
2021/06/21 02:51:51;;;;;;;6.25;3.20;;;19.70;76.60;;;20.15;61.24;96801.53;5048319;28;20057;-40
2021/06/21 02:54:39;;;;;;;8.23;2.20;;;19.80;76.20;;;20.15;61.13;96796.13;5049631;28;20052;-39
2021/06/21 02:57:29;;;;;;;12.63;3.28;;;19.90;75.60;;;20.14;60.78;96805.31;5033992;28;20063;-39
2021/06/21 02:59:58;;;;;;;7.30;2.40;;;19.80;75.20;;;20.15;60.58;96779.09;5049048;28;20364;-39
2021/06/21 03:02:29;;;;;;;5.95;2.60;;;19.70;75.50;;;20.14;60.66;96783.69;5031764;28;20063;-39
2021/06/21 03:05:01;;;;;;;6.90;2.13;;;19.70;75.50;;;20.12;60.65;96785.78;5050220;28;20226;-40
2021/06/21 03:07:30;;;;;;;7.97;2.15;;;19.70;75.50;;;20.12;60.74;96784.97;5048854;28;20067;-39
2021/06/21 03:10:00;;;;;;;3.92;2.08;;;19.80;75.40;;;20.14;60.77;96791.81;5030876;28;20053;-39
2021/06/21 03:12:30;;;;;;;6.18;2.40;;;19.80;75.40;;;20.16;60.67;96802.34;5034485;28;20053;-39
2021/06/21 03:14:58;;;;;;;3.53;1.88;;;19.80;75.30;;;20.18;60.67;96805.63;5032462;28;20061;-40
2021/06/21 03:17:27;;;;;;;7.78;2.35;;;19.90;75.30;;;20.20;60.98;96809.75;5048623;28;20055;-39
2021/06/21 03:19:56;;;;;;;7.20;2.78;;;19.90;75.20;;;20.22;61.01;96799.50;5048380;28;20055;-39
2021/06/21 03:22:26;;;;;;;3.60;1.70;;;19.90;75.30;;;20.25;60.85;96799.00;5047757;28;20365;-39
2021/06/21 03:24:55;;;;;;;5.45;2.88;;;20.00;75.10;;;20.29;60.66;96803.94;5032584;28;20072;-39
2021/06/21 03:27:37;;;;;;;10.07;3.13;;;20.00;75.10;;;20.29;60.84;96796.63;5049672;28;20048;-39
2021/06/21 03:30:14;;;;;;;6.88;2.40;;;20.10;75.80;;;20.30;61.03;96794.75;5047013;28;20045;-39
2021/06/21 03:32:42;;;;;;;6.03;2.55;;;20.00;75.80;;;20.30;60.93;96802.84;5048238;28;20045;-39
2021/06/21 03:35:12;;;;;;;4.65;1.95;;;20.00;75.40;;;20.26;61.12;96805.25;5048995;28;20362;-39
2021/06/21 03:37:41;;;;;;;4.00;1.70;;;20.00;75.60;;;20.21;61.39;96807.84;5046528;28;20243;-39
2021/06/21 03:40:11;;;;;;;7.38;2.63;;;20.00;75.30;;;20.21;61.20;96822.16;5047738;28;20238;-39
2021/06/21 03:42:40;;;;;;;7.72;2.10;;;20.00;75.60;;;20.22;61.24;96836.50;5045401;28;20053;-40
2021/06/21 03:45:11;;;;;;;6.40;2.25;;;19.90;75.80;;;20.21;61.37;96837.56;5031178;28;20044;-40
2021/06/21 03:47:40;;;;;;;5.18;2.00;;;19.90;76.00;;;20.19;61.14;96832.41;5049392;28;20222;-40
2021/06/21 03:50:10;;;;;;;7.85;2.25;;;19.90;76.10;;;20.15;61.24;96819.63;5047548;28;20207;-38
2021/06/21 03:52:38;;;;;;;6.55;2.53;;;19.90;75.80;;;20.17;61.41;96806.69;5048542;28;20365;-39
2021/06/21 03:55:06;;;;;;;5.30;2.03;;;19.90;75.80;;;20.20;61.32;96814.31;5048839;28;20279;-40
2021/06/21 03:57:38;;;;;;;6.10;2.10;;;19.90;75.90;;;20.19;61.34;96827.00;5047996;28;20056;-39
2021/06/21 04:00:18;;;;;;;8.30;1.85;;;19.90;76.10;;;20.18;61.11;96824.53;5047885;28;20079;-39
2021/06/21 04:02:47;;;;;;;6.03;2.10;;;19.90;76.40;;;20.18;61.28;96821.84;5047210;28;20063;-40
2021/06/21 04:05:16;;;;;;;9.23;2.30;;;19.90;76.10;;;20.21;61.15;96827.56;5048158;28;20060;-39
2021/06/21 04:07:45;;;;;;;6.50;2.22;;;19.90;75.90;;;20.21;61.26;96829.47;5046685;28;20045;-40
2021/06/21 04:10:18;;;;;;;6.10;2.60;;;19.90;75.90;;;20.20;61.11;96825.94;5046810;28;20343;-40
2021/06/21 04:12:48;;;;;;;7.45;3.30;;;19.90;76.00;;;20.20;60.97;96828.66;5029469;28;20067;-40
2021/06/21 04:15:20;;;;;;;6.07;2.22;;;19.90;75.80;;;20.23;61.08;96824.63;5048264;28;20359;-39
2021/06/21 04:17:49;;;;;;;8.68;2.30;;;19.90;75.70;;;20.23;61.14;96820.03;5028413;28;20049;-39
2021/06/21 04:20:18;;;;;;;8.25;1.95;;;19.90;75.60;;;20.24;61.00;96807.38;5047281;28;20074;-39
2021/06/21 04:22:47;;;;;;;9.63;1.90;;;19.90;75.60;;;20.24;60.90;96807.38;5030520;28;20055;-39
2021/06/21 04:25:17;;;;;;;6.57;2.03;;;19.90;75.60;;;20.20;60.62;96804.34;5047707;28;20075;-39
2021/06/21 04:27:46;;;;;;;5.75;2.35;;;19.80;75.40;;;20.12;60.74;96806.59;5046167;28;20052;-39
2021/06/21 04:30:18;;;;;;;5.38;1.88;;;19.70;75.60;;;20.08;60.93;96816.25;5031232;28;20057;-40
2021/06/21 04:32:47;;;;;;;8.32;2.30;;;19.70;75.70;;;20.04;60.92;96824.81;5045016;28;20057;-40
2021/06/21 04:35:21;;;;;;;6.97;1.92;;;19.70;75.70;;;19.99;61.01;96830.16;5046281;28;20052;-40
2021/06/21 04:37:51;;;;;;;3.60;1.73;;;19.60;76.00;;;19.95;61.09;96825.44;5047682;28;20056;-40
2021/06/21 04:40:24;;;;;;;6.53;1.90;;;19.50;76.10;;;19.93;61.03;96832.97;5047447;28;20044;-40
2021/06/21 04:42:52;;;;;;;6.57;2.58;;;19.40;76.20;;;19.91;61.19;96819.75;5046603;28;20061;-40
2021/06/21 04:45:20;;;;;;;5.10;2.08;;;19.60;76.10;;;19.93;60.76;96820.31;5046692;28;20346;-40
2021/06/21 04:47:49;;;;;;;3.35;1.73;;;19.60;75.80;;;19.91;61.18;96817.03;5028484;28;20055;-40
2021/06/21 04:50:18;;;;;;;4.78;1.90;;;19.60;75.80;;;19.93;61.18;96809.50;5047342;28;20056;-40
2021/06/21 04:52:48;;;;;;;6.38;2.00;;;19.60;75.80;;;19.94;61.08;96813.84;5046310;28;20057;-40
2021/06/21 04:55:19;;;;;;;3.58;1.73;;;19.60;75.80;;;19.94;60.96;96815.72;5047919;28;20305;-40
2021/06/21 04:57:48;;;;;;;5.45;1.75;;;19.60;76.10;;;19.90;61.27;96820.78;5046237;28;20352;-39
2021/06/21 05:00:20;;;;;;;6.43;1.75;;;19.50;76.40;;;19.90;61.25;96823.50;5046576;28;20052;-39
2021/06/21 05:02:49;;;;;;;6.35;2.28;;;19.60;76.40;;;19.91;61.26;96824.31;5045862;28;20090;-39
2021/06/21 05:05:20;;;;;;;9.20;2.20;;;19.60;76.20;;;19.92;61.32;96826.78;5046932;28;20051;-39
2021/06/21 05:07:54;;;;;;;3.42;1.98;;;19.60;76.30;;;19.91;61.62;96832.41;5047317;28;20052;-39
2021/06/21 05:10:25;;;;;;;5.70;3.13;;;19.70;76.10;;;19.90;61.51;96828.06;5046646;28;20053;-39
2021/06/21 05:12:54;;;;;;;5.88;2.45;;;19.70;76.20;;;19.95;61.66;96837.09;5045235;28;20258;-39
2021/06/21 05:15:22;;;;;;;7.53;2.92;;;19.80;76.00;;;19.99;61.55;96834.75;5044997;28;20545;-39
2021/06/21 05:17:50;;;;;;;6.32;2.10;;;19.80;76.20;;;20.00;61.55;96844.47;5046126;28;20045;-39
2021/06/21 05:20:18;;;;;;;7.60;1.90;;;19.80;76.20;;;20.02;61.66;96842.34;5045752;28;20057;-39
2021/06/21 05:22:48;;;;;;;5.82;1.85;;;19.80;76.00;;;20.06;61.59;96854.31;5046377;28;20238;-39
2021/06/21 05:25:16;;;;;;;8.98;3.03;;;19.90;75.90;;;20.05;61.83;96856.19;5047471;28;20346;-40
2021/06/21 05:27:46;;;;;;;4.13;1.98;;;19.90;75.60;;;20.05;61.87;96855.38;5045074;28;20045;-39
2021/06/21 05:30:14;;;;;;;6.50;1.85;;;19.90;75.80;;;20.11;61.66;96862.53;5044713;28;20392;-39
2021/06/21 05:32:42;;;;;;;7.20;2.88;;;20.00;75.70;;;20.13;61.68;96856.88;5046170;28;20064;-40
2021/06/21 05:35:11;;;;;;;7.95;1.88;;;20.00;75.60;;;20.16;61.81;96851.81;5046490;28;20607;-40
2021/06/21 05:37:44;;;;;;;5.63;2.22;;;20.00;75.90;;;20.21;61.74;96860.00;5048959;28;20048;-40
2021/06/21 05:40:13;;;;;;;4.05;2.20;;;20.10;75.80;;;20.22;61.78;96850.84;5045309;28;20056;-41
2021/06/21 05:42:42;;;;;;;4.43;1.58;;;20.10;75.80;;;20.27;61.58;96842.81;5044084;28;20048;-41
2021/06/21 05:45:11;;;;;;;7.18;2.60;;;20.10;75.90;;;20.29;61.52;96847.16;5045158;28;20056;-39
2021/06/21 05:47:39;;;;;;;3.83;2.22;;;20.10;75.60;;;20.27;61.55;96853.63;5045267;28;20047;-39
2021/06/21 05:50:08;;;;;;;8.43;2.22;;;20.10;75.50;;;20.29;61.76;96866.91;5027753;28;20049;-39
2021/06/21 05:52:36;;;;;;;8.82;2.28;;;20.10;75.80;;;20.32;61.63;96868.31;5046206;28;20238;-40
2021/06/21 05:55:06;;;;;;;6.60;2.20;;;20.20;75.70;;;20.32;61.81;96871.84;5044510;28;20049;-40
2021/06/21 05:57:34;;;;;;;6.53;2.42;;;20.30;75.60;;;20.35;61.61;96863.22;5045369;28;20354;-39
2021/06/21 06:00:05;;;;;;;4.95;2.13;;;20.30;75.30;;;20.40;61.74;96857.09;5042210;28;20060;-40
2021/06/21 06:02:43;;;;;;;5.10;1.90;;;20.40;75.50;;;20.43;61.63;96864.72;5044092;28;20350;-40
2021/06/21 06:05:12;;;;;;;3.80;1.73;;;20.30;75.20;;;20.43;61.68;96873.66;5046291;28;20049;-39
2021/06/21 06:07:40;;;;;;;4.70;1.90;;;20.40;74.90;;;20.41;61.79;96862.28;5041904;28;20044;-40
2021/06/21 06:10:09;;;;;;;7.05;2.30;;;20.40;74.60;;;20.48;61.67;96861.31;5044501;28;20067;-39
2021/06/21 06:12:37;;;;;;;5.45;2.13;;;20.50;74.70;;;20.54;61.45;96858.44;5044072;28;20048;-39
2021/06/21 06:15:06;;;;;;;4.70;2.13;;;20.60;74.50;;;20.58;61.64;96858.75;5043639;28;20056;-40
2021/06/21 06:17:34;;;;;;;6.28;2.67;;;20.60;74.40;;;20.62;61.10;96868.06;5045258;28;20066;-39
2021/06/21 06:20:05;;;;;;;6.00;2.17;;;20.70;74.20;;;20.65;60.95;96865.69;5043708;28;20052;-39
2021/06/21 06:22:33;;;;;;;10.02;1.83;;;20.70;73.90;;;20.71;61.31;96868.50;5046034;28;20048;-39
2021/06/21 06:25:01;;;;;;;4.70;2.38;;;20.80;74.30;;;20.76;60.86;96872.09;5045056;28;20303;-39
2021/06/21 06:27:29;;;;;;;3.33;1.73;;;20.80;73.90;;;20.80;60.96;96869.69;5044375;28;20069;-39
2021/06/21 06:29:57;;;;;;;10.88;2.83;;;20.80;73.70;;;20.84;60.79;96879.81;5043450;28;20051;-40
2021/06/21 06:32:25;;;;;;;5.57;2.03;;;20.80;73.80;;;20.88;60.23;96873.88;5043953;28;20045;-39
2021/06/21 06:34:53;;;;;;;5.15;2.10;;;20.80;73.40;;;20.90;60.30;96877.16;5044857;28;20246;-45
2021/06/21 06:37:21;;;;;;;5.25;1.80;;;20.90;73.40;;;20.94;60.14;96878.34;5046386;28;20071;-40
2021/06/21 06:39:49;;;;;;;5.18;2.30;;;20.90;73.40;;;20.98;60.29;96877.59;5044374;28;20087;-39
2021/06/21 06:42:17;;;;;;;6.40;1.67;;;21.00;73.00;;;21.01;60.19;96882.53;5041989;28;20061;-40
2021/06/21 06:44:45;;;;;;;8.00;2.53;;;21.00;72.80;;;21.06;60.13;96886.38;5043409;28;20059;-40
2021/06/21 06:47:13;;;;;;;4.63;1.98;;;21.10;72.80;;;21.08;59.88;96876.13;5043290;28;20045;-39
2021/06/21 06:49:41;;;;;;;3.08;1.38;;;21.10;72.50;;;21.11;60.29;96887.28;5044674;28;20075;-39
2021/06/21 06:52:10;;;;;;;5.78;2.33;;;21.10;72.70;;;21.14;59.76;96889.47;5048465;28;20057;-39
2021/06/21 06:57:12;;;;;;;7.18;2.33;;;21.20;71.90;;;21.13;59.43;96890.53;5060697;28;20265;-39
2021/06/21 06:59:40;;;;;;;5.35;1.67;;;21.20;71.80;;;21.18;59.29;96887.91;5060749;28;20235;-39
2021/06/21 07:02:22;;;;;;;4.35;1.77;;;21.30;71.80;;;21.22;59.60;96882.81;5059125;28;20388;-39
2021/06/21 07:04:50;;;;;;;6.95;2.00;;;21.30;71.30;;;21.27;59.41;96885.59;5059254;28;20049;-40
2021/06/21 07:07:20;;;;;;;3.85;1.70;;;21.30;71.20;;;21.28;59.29;96895.34;5059424;28;20071;-39
2021/06/21 07:09:48;;;;;;;8.77;2.58;;;21.40;71.60;;;21.30;59.00;96889.69;5058716;28;20061;-39
2021/06/21 07:12:16;;;;;;;4.45;2.22;;;21.40;71.40;;;21.30;58.62;96887.81;5058967;28;20048;-39
2021/06/21 07:14:45;;;;;;;5.15;2.05;;;21.40;70.20;;;21.33;58.17;96894.63;5058947;28;20053;-39
2021/06/21 07:17:13;;;;;;;4.60;2.10;;;21.50;70.00;;;21.36;58.17;96894.91;5059963;28;20055;-39
2021/06/21 07:19:42;;;;;;;3.67;1.60;;;21.50;70.30;;;21.36;58.05;96892.22;5060369;28;20063;-39
2021/06/21 07:22:10;;;;;;;5.40;1.80;;;21.50;69.70;;;21.43;58.34;96892.91;5058646;28;20053;-39
2021/06/21 07:24:38;;;;;;;6.20;2.05;;;21.60;69.80;;;21.48;58.38;96894.03;5059494;28;20061;-39
2021/06/21 07:27:10;;;;;;;5.53;1.88;;;21.60;69.70;;;21.53;57.79;96881.38;5063141;28;20055;-39
2021/06/21 07:29:38;;;;;;;3.35;1.60;;;21.70;69.70;;;21.59;58.26;96876.88;5063447;28;20057;-39
2021/06/21 07:32:06;;;;;;;6.60;2.67;;;21.70;70.00;;;21.63;57.59;96878.84;5061921;28;20025;-39
2021/06/21 07:34:36;;;;;;;5.57;1.80;;;21.80;69.40;;;21.68;58.03;96875.38;5063535;28;20041;-39
2021/06/21 07:37:04;;;;;;;3.28;1.90;;;21.80;69.50;;;21.72;58.25;96881.91;5064969;28;20040;-39
2021/06/21 07:39:32;;;;;;;3.05;1.52;;;21.90;69.80;;;21.78;57.54;96878.19;5080558;28;20059;-39
2021/06/21 07:42:00;;;;;;;5.32;2.40;;;21.90;69.30;;;21.80;57.74;96870.63;5064899;28;20052;-39
2021/06/21 07:44:29;;;;;;;6.82;2.00;;;22.00;69.00;;;21.86;57.38;96878.84;5064542;28;20045;-39
2021/06/21 07:46:57;;;;;;;5.97;2.15;;;22.00;68.50;;;21.92;56.74;96891.38;5064342;28;20055;-39
2021/06/21 07:49:25;;;;;;;2.67;1.85;;;22.20;67.90;;;21.96;56.64;96889.78;5064943;28;20234;-39
2021/06/21 07:51:53;;;;;;;8.15;2.20;;;22.20;67.30;;;21.93;56.05;96880.28;5064925;28;20074;-39
2021/06/21 07:54:22;;;;;;;3.97;2.30;;;22.20;66.80;;;21.96;55.97;96893.31;5064307;28;20055;-39
2021/06/21 07:56:50;;;;;;;4.55;1.70;;;22.20;67.10;;;21.97;55.40;96889.53;5062482;28;20067;-39
2021/06/21 07:59:18;;;;;;;3.63;1.77;;;22.20;66.60;;;21.98;56.02;96882.22;5060739;28;20057;-39
2021/06/21 08:01:46;;;;;;;4.97;1.92;;;22.10;67.00;;;22.02;56.10;96884.19;5054807;28;20049;-39
2021/06/21 08:04:15;;;;;;;7.30;2.30;;;22.20;67.20;;;22.07;55.68;96886.13;5055253;28;20223;-40
2021/06/21 08:06:43;;;;;;;4.72;2.20;;;22.30;67.10;;;22.11;55.86;96881.03;5059075;28;20249;-39
2021/06/21 08:09:12;;;;;;;5.30;1.92;;;22.30;66.80;;;22.16;56.08;96887.34;5050639;28;20029;-39
2021/06/21 08:11:40;;;;;;;3.13;1.88;;;22.30;67.30;;;22.20;56.22;96887.66;5050344;28;20045;-39
2021/06/21 08:14:08;;;;;;;4.00;1.45;;;22.40;67.10;;;22.27;55.78;96887.47;5049690;28;20051;-39
2021/06/21 08:16:36;;;;;;;2.63;1.58;;;22.50;67.00;;;22.34;55.74;96888.91;5045457;28;20041;-39
2021/06/21 08:19:04;;;;;;;5.68;1.67;;;22.60;66.70;;;22.40;55.69;96896.00;5046510;28;20052;-39
2021/06/21 08:21:32;;;;;;;5.00;2.03;;;22.60;66.90;;;22.47;55.55;96903.13;5048383;28;20063;-39
2021/06/21 08:24:00;;;;;;;6.85;2.50;;;22.70;66.60;;;22.45;55.33;96899.84;5048351;28;20262;-39
2021/06/21 08:26:28;;;;;;;6.10;2.67;;;22.70;66.10;;;22.51;55.27;96904.28;5047335;28;20048;-39
2021/06/21 08:28:56;;;;;;;4.28;1.88;;;22.80;66.10;;;22.54;55.20;96899.13;5047736;28;20582;-39
2021/06/21 08:31:24;;;;;;;5.00;2.67;;;22.80;66.10;;;22.57;55.12;96901.34;5047869;28;20053;-39
2021/06/21 08:33:53;;;;;;;3.72;2.38;;;22.80;65.90;;;22.62;54.92;96897.84;5048855;28;20466;-39
2021/06/21 08:36:21;;;;;;;4.38;2.10;;;22.80;65.80;;;22.65;54.79;96901.97;5047417;28;20048;-39
2021/06/21 08:38:49;;;;;;;3.88;1.77;;;22.80;65.60;;;22.69;54.82;96898.47;5046743;28;20059;-39
2021/06/21 08:41:18;;;;;;;2.55;2.25;;;22.90;65.50;;;22.74;54.80;96901.25;5046202;28;20053;-39
2021/06/21 08:43:47;;;;;;;5.47;2.53;;;23.00;65.50;;;22.80;54.39;96902.94;5047426;28;20068;-39
2021/06/21 08:46:17;;;;;;;5.72;1.95;;;23.00;65.20;;;22.85;54.54;96904.84;5048007;28;20053;-39
2021/06/21 08:48:47;;;;;;;3.72;2.03;;;23.10;65.20;;;22.93;54.02;96914.41;5046467;28;20041;-40
2021/06/21 08:51:16;;;;;;;3.25;2.08;;;23.10;64.60;;;22.88;53.45;96901.63;5046329;28;20048;-40
2021/06/21 08:53:44;;;;;;;4.53;2.00;;;23.10;63.60;;;22.95;53.73;96910.41;5046725;28;20056;-39
2021/06/21 08:56:12;;;;;;;2.92;1.92;;;23.20;64.00;;;23.01;52.96;96908.50;5046868;28;20067;-39
2021/06/21 08:58:41;;;;;;;5.18;2.10;;;23.30;63.10;;;23.05;52.66;96914.28;5047157;28;20061;-39
2021/06/21 09:01:09;;;;;;;5.75;2.28;;;23.30;62.90;;;23.06;52.82;96910.50;5046251;28;20253;-40
2021/06/21 09:03:38;;;;;;;5.82;3.55;;;23.30;62.90;;;23.14;52.73;96907.28;5046968;28;20060;-40
2021/06/21 09:06:22;;;;;;;5.70;2.13;;;23.40;63.00;;;23.18;51.72;96913.84;5044548;28;20051;-39
2021/06/21 09:08:54;;;;;;;;;;;23.40;60.80;;;23.08;52.25;96909.16;5046982;28;20045;-39
2021/06/21 09:11:47;;;;;;;3.22;1.73;;;23.30;61.20;;;23.11;51.52;96897.78;5045345;28;19925;-39
2021/06/21 09:14:30;;;;;;;2.60;1.60;;;23.30;60.90;;;23.23;52.25;96897.59;5047180;28;20056;-39
2021/06/21 09:17:08;;;;;;;2.45;1.80;;;23.40;62.50;;;23.27;51.55;96906.03;5045770;28;20061;-39
2021/06/21 09:19:56;;;;;;;3.03;2.15;;;23.50;60.90;;;23.33;51.30;96897.66;5046359;28;20052;-39
2021/06/21 09:22:38;;;;;;;5.20;2.55;;;23.60;60.00;;;23.41;51.44;96896.34;5046190;28;20057;-39
2021/06/21 09:25:20;;;;;;;4.28;1.92;;;23.70;60.80;;;23.53;51.90;96905.13;5045914;28;20079;-38
2021/06/21 09:28:05;;;;;;;4.35;1.98;;;23.80;61.80;;;23.62;51.03;96896.50;5044690;28;20067;-39
2021/06/21 09:30:50;;;;;;;6.47;1.90;;;24.00;60.60;;;23.73;51.37;96893.56;5044766;28;20063;-39
2021/06/21 09:33:31;;;;;;;4.90;2.17;;;24.10;60.30;;;23.80;51.62;96887.09;5043772;28;20051;-39
2021/06/21 09:35:59;;;;;;;6.05;2.63;;;24.20;60.50;;;23.85;51.05;96890.66;5046290;28;20243;-39
2021/06/21 09:38:27;;;;;;;2.55;1.80;;;24.20;60.60;;;23.89;51.42;96890.94;5045955;28;20294;-39
2021/06/21 09:40:57;;;;;;;6.00;2.60;;;24.20;60.70;;;23.87;50.77;96890.41;5046768;28;20482;-39
2021/06/21 09:43:35;;;;;;;5.72;2.10;;;24.20;60.00;;;23.90;51.16;96903.44;5044343;28;20057;-39
2021/06/21 09:46:13;;;;;;;4.82;2.40;;;24.20;60.50;;;23.93;51.53;96900.22;5044377;28;20061;-39
2021/06/21 09:48:54;;;;;;;3.25;1.63;;;24.20;60.50;;;23.89;49.89;96907.25;5045912;28;20067;-39
2021/06/21 09:51:34;;;;;;;6.25;2.22;;;24.20;59.90;;;23.93;50.28;96902.94;5045441;28;20045;-39
2021/06/21 09:54:11;;;;;;;3.58;2.25;;;24.20;59.50;;;23.97;51.15;96910.28;5044809;28;20045;-39
2021/06/21 09:56:54;;;;;;;4.65;2.08;;;24.20;61.80;;;23.90;50.17;96909.69;5044406;28;20359;-39
2021/06/21 09:59:33;;;;;;;3.03;2.40;;;24.20;59.40;;;23.98;51.02;96908.38;5046006;28;20063;-39
2021/06/21 10:02:33;;;;;;;3.05;1.85;;;24.20;60.40;;;23.94;50.36;96904.53;5044258;28;20049;-39
2021/06/21 10:05:01;;;;;;;5.13;1.60;;;24.20;59.60;;;24.01;50.34;96913.28;5035234;28;20075;-39
2021/06/21 10:07:37;;;;;;;3.45;1.90;;;24.20;59.60;;;24.06;49.96;96909.75;5043938;28;20045;-39
2021/06/21 10:10:08;;;;;;;6.63;2.10;;;24.30;59.30;;;24.10;50.69;96908.16;5044820;28;20080;-39
2021/06/21 10:12:39;;;;;;;2.20;1.77;;;24.30;60.80;;;24.18;50.46;96907.66;5045478;28;20059;-39
2021/06/21 10:15:10;;;;;;;4.50;2.03;;;24.50;60.30;;;24.28;50.86;96909.59;5046018;28;20057;-39
2021/06/21 10:17:38;;;;;;;5.65;1.92;;;24.60;60.30;;;24.33;50.10;96898.69;5044432;28;20052;-39
2021/06/21 10:20:09;;;;;;;2.60;2.05;;;24.60;59.50;;;24.37;50.19;96902.53;5046204;28;20060;-39
2021/06/21 10:22:38;;;;;;;2.83;1.80;;;24.80;58.90;;;24.44;49.68;96910.44;5044913;28;20053;-39
2021/06/21 10:25:10;;;;;;;3.95;1.75;;;24.80;58.70;;;24.50;49.00;96912.06;5045316;28;20061;-40
2021/06/21 10:27:44;;;;;;;6.07;2.45;;;24.80;58.30;;;24.56;49.18;96911.03;5044997;28;20056;-39
2021/06/21 10:30:19;;;;;;;3.55;2.13;;;24.90;58.40;;;24.58;48.63;96908.03;5042932;28;20056;-39
2021/06/21 10:32:51;;;;;;;3.25;2.08;;;24.90;57.90;;;24.60;48.75;96903.97;5044553;28;20083;-39
2021/06/21 10:35:24;;;;;;;5.68;2.47;;;24.90;58.20;;;24.67;49.13;96895.56;5043312;28;20053;-39
2021/06/21 10:38:03;;;;;;;5.25;2.30;;;25.00;58.50;;;24.76;49.33;96905.63;5044763;28;20049;-39
2021/06/21 10:40:51;;;;;;;3.35;1.90;;;25.10;58.30;;;24.83;48.60;96894.47;5045879;28;20053;-39